Terminal Aerodrome Forecast
Issued by NWS Twin Cities, MN

Home | Current Version | Previous Version | Graphics & Text | Print | Product List | Glossary On
Versions: 1 2 3 4 5 6 7 8 9 10 11 12 13 14
828
FTUS43 KMPX 231722
TAFSTC
TAF
KSTC 231722Z 2318/2418 02008KT P6SM VCSH SCT020 BKN040 OVC080
      TEMPO 2318/2320 BKN020
     FM240200 01007KT P6SM OVC060
     FM240900 01004KT P6SM BKN030
     FM241000 01004KT P6SM BKN015
     FM241100 01005KT P6SM SCT010=

USA.gov is the U.S. government's official web portal to all federal, state and local government web resources and services.